Lionhead Wind

Lionhead weather stationLocated on Lionhead Ridge near West Yellowstone. Use the nearest SNOTEL station for snow depth data: Madison Plateau. The data on this page is also available to view at dataGarrison.com.

Elevation
9420ft
Jump to table bottom
Date Time Temperature
deg F
RH, % Wind Speed Wind Gust Wind Direction Pressure Light
02/06/23 09:00 17.4 97 3 15 NW - 319 713.420 0
02/06/23 08:00 13.2 97 7 23 NW - 298 713.000 0
02/06/23 07:00 13.9 98 7 21 W - 286 712.340 0
02/06/23 06:00 13.9 98 9 24 W - 274 711.360 0
02/06/23 05:00 13.8 98 12 28 W - 261 710.880 0
02/06/23 04:00 13.9 98 10 25 W - 258 710.520 0
02/06/23 03:00 13.4 98 5 15 W - 254 710.260 0
02/06/23 02:00 13.5 97 14 27 W - 258 709.540 0
02/06/23 01:00 13.9 98 16 26 W - 256 709.140 0
02/06/23 00:00 14.3 98 10 24 SW - 229 709.080 0
02/05/23 23:00 14.6 98 7 14 SW - 209 709.160 0
02/05/23 22:00 14.8 98 11 19 SW - 232 709.000 0
02/05/23 21:00 15.0 98 12 18 SW - 227 708.760 0
02/05/23 20:00 15.2 98 19 28 SW - 246 708.360 0
02/05/23 19:00 15.3 98 18 28 SW - 239 708.020 0
02/05/23 18:00 15.0 98 18 26 SW - 243 708.420 0
02/05/23 17:00 15.6 98 18 27 W - 251 707.920 0
02/05/23 16:00 15.2 98 17 24 SW - 230 707.580 0
02/05/23 15:00 16.1 98 16 21 SW - 222 707.760 0
02/05/23 14:00 16.5 98 16 25 SW - 216 707.800 0
02/05/23 13:00 16.6 98 22 33 SW - 215 708.300 0
02/05/23 12:00 16.9 98 31 54 SW - 212 708.580 0
02/05/23 11:00 17.2 98 39 58 SW - 206 707.980 0
02/05/23 10:00 17.7 95 34 58 SW - 220 708.560 0
02/05/23 09:00 20.9 72 33 47 SW - 220 709.960 0
02/05/23 08:00 20.4 71 31 47 SW - 212 709.700 0
02/05/23 07:00 19.4 75 18 25 S - 202 710.720 0
02/05/23 06:00 17.6 86 14 21 SW - 212 711.480 0
02/05/23 05:00 16.4 99 14 20 S - 188 712.200 0
02/05/23 04:00 16.3 99 12 19 S - 202 713.020 0
02/05/23 03:00 15.8 98 15 20 SW - 211 713.720 0
02/05/23 02:00 15.5 98 14 20 SW - 205 714.500 0
02/05/23 01:00 15.4 98 14 19 SW - 206 715.020 0
02/05/23 00:00 15.5 98 13 19 SW - 206 715.840 0
02/04/23 23:00 15.5 98 14 21 SW - 213 716.200 0
02/04/23 22:00 15.6 98 11 18 SW - 213 716.820 0
02/04/23 21:00 15.2 98 12 17 SW - 226 716.640 0
02/04/23 20:00 14.7 98 14 19 SW - 220 716.940 0
02/04/23 19:00 15.2 98 16 21 SW - 222 717.020 0
02/04/23 18:00 15.2 98 17 24 SW - 215 716.940 0
02/04/23 17:00 15.3 98 17 24 SW - 215 716.860 0
02/04/23 16:00 15.6 99 20 30 SW - 223 716.600 0
02/04/23 15:00 16.3 98 19 28 SW - 223 716.560 0
02/04/23 14:00 32.0 98 20 30 SW - 223 716.760 0
02/04/23 13:00 16.4 98 16 26 SW - 227 716.660 0
02/04/23 12:00 16.3 98 11 17 SW - 237 717.500 0
02/04/23 11:00 14.1 97 14 23 SW - 236 717.160 0
02/04/23 10:00 12.8 97 10 16 SW - 211 717.500 0
02/04/23 09:00 11.1 96 12 19 S - 191 717.220 0
02/04/23 08:00 10.4 96 16 24 SW - 225 716.820 0